createdAt,value
2023-04-30T00:00:30.531Z,6.90
2023-04-30T00:02:57.763Z,3.58
2023-04-30T00:05:25.115Z,8.07
2023-04-30T00:07:51.910Z,3.30
2023-04-30T00:10:18.756Z,4.63
2023-04-30T00:12:45.609Z,8.13
2023-04-30T00:15:12.456Z,3.58
2023-04-30T00:17:39.353Z,5.88
2023-04-30T00:20:07.174Z,5.07
2023-04-30T00:22:34.038Z,3.75
2023-04-30T00:25:00.937Z,5.28
2023-04-30T00:27:28.146Z,5.22
2023-04-30T00:29:55.667Z,8.35
2023-04-30T00:32:22.914Z,3.65
2023-04-30T00:34:50.022Z,4.32
2023-04-30T00:37:16.917Z,4.95
2023-04-30T00:39:43.787Z,4.78
2023-04-30T00:42:10.494Z,4.80
2023-04-30T00:44:37.398Z,5.82
2023-04-30T00:47:04.202Z,5.40
2023-04-30T00:49:31.723Z,6.95
2023-04-30T00:51:58.575Z,5.47
2023-04-30T00:54:25.913Z,9.68
2023-04-30T00:56:52.860Z,4.93
2023-04-30T00:59:19.936Z,5.68
2023-04-30T01:01:47.176Z,4.90
2023-04-30T01:04:14.205Z,4.65
2023-04-30T01:06:41.287Z,9.70
2023-04-30T01:09:08.326Z,8.82
2023-04-30T01:11:44.078Z,9.02
2023-04-30T01:14:17.442Z,5.53
2023-04-30T01:16:53.061Z,8.32
2023-04-30T01:19:40.761Z,5.10
2023-04-30T01:22:14.831Z,4.30
2023-04-30T01:25:03.486Z,4.68
2023-04-30T01:27:51.854Z,6.15
2023-04-30T01:30:21.235Z,9.45
2023-04-30T01:32:48.134Z,6.53
2023-04-30T01:35:15.053Z,9.73
2023-04-30T01:38:10.418Z,8.45
2023-04-30T01:40:44.581Z,6.35
2023-04-30T01:43:20.298Z,6.35
2023-04-30T01:46:02.370Z,6.60
2023-04-30T01:49:04.394Z,7.38
2023-04-30T01:51:41.863Z,5.18
2023-04-30T01:54:33.044Z,6.38
2023-04-30T01:57:05.854Z,6.35
2023-04-30T01:59:35.880Z,6.37
2023-04-30T02:02:03.527Z,6.25
2023-04-30T02:04:30.839Z,10.18
2023-04-30T02:06:58.808Z,5.57
2023-04-30T02:09:25.786Z,8.60
2023-04-30T02:11:52.553Z,7.22
2023-04-30T02:14:19.576Z,6.43
2023-04-30T02:16:47.008Z,11.82
2023-04-30T02:19:13.892Z,10.15
2023-04-30T02:21:40.954Z,8.40
2023-04-30T02:24:07.938Z,7.43
2023-04-30T02:26:34.838Z,7.07
2023-04-30T02:29:01.751Z,5.20
2023-04-30T02:31:28.815Z,6.90
2023-04-30T02:33:55.818Z,7.75
2023-04-30T02:36:22.731Z,9.60
2023-04-30T02:38:49.538Z,6.50
2023-04-30T02:41:16.866Z,10.65
2023-04-30T02:43:43.777Z,8.00
2023-04-30T02:46:10.640Z,10.43
2023-04-30T02:48:37.423Z,6.15
2023-04-30T02:51:04.670Z,6.20
2023-04-30T02:53:31.490Z,9.10
2023-04-30T02:55:59.124Z,6.65
2023-04-30T02:58:26.592Z,9.68
2023-04-30T03:00:53.553Z,13.48
2023-04-30T03:03:20.949Z,12.07
2023-04-30T03:05:48.151Z,11.68
2023-04-30T03:08:14.927Z,7.50
2023-04-30T03:10:41.861Z,9.23
2023-04-30T03:13:08.713Z,9.60
2023-04-30T03:15:35.715Z,8.70
2023-04-30T03:18:02.675Z,8.20
2023-04-30T03:20:29.486Z,8.20
2023-04-30T03:22:56.455Z,11.00
2023-04-30T03:25:23.270Z,6.35
2023-04-30T03:27:50.054Z,8.32
2023-04-30T03:30:16.880Z,10.68
2023-04-30T03:32:43.707Z,15.35
2023-04-30T03:35:10.875Z,8.57
2023-04-30T03:37:37.779Z,19.38
2023-04-30T03:40:05.063Z,16.30
2023-04-30T03:42:31.941Z,9.18
2023-04-30T03:44:59.014Z,8.82
2023-04-30T03:47:25.903Z,7.32
2023-04-30T03:49:55.737Z,13.40
2023-04-30T03:52:23.851Z,9.60
2023-04-30T03:54:50.983Z,8.23
2023-04-30T03:57:19.243Z,10.45
2023-04-30T03:59:46.102Z,12.32
2023-04-30T04:02:13.184Z,8.63
2023-04-30T04:04:40.363Z,10.27
2023-04-30T04:07:09.483Z,11.80
2023-04-30T04:09:36.341Z,10.55
2023-04-30T04:12:04.591Z,9.50
2023-04-30T04:14:31.441Z,10.82
2023-04-30T04:16:59.920Z,11.32
2023-04-30T04:19:27.485Z,12.55
2023-04-30T04:21:54.720Z,9.18
2023-04-30T04:24:21.614Z,11.30
2023-04-30T04:26:48.573Z,9.18
2023-04-30T04:29:15.435Z,10.02
2023-04-30T04:31:43.139Z,9.73
2023-04-30T04:34:11.498Z,15.35
2023-04-30T04:36:38.907Z,8.82
2023-04-30T04:39:06.141Z,8.70
2023-04-30T04:41:34.100Z,10.50
2023-04-30T04:44:03.225Z,10.98
2023-04-30T04:46:33.328Z,15.30
2023-04-30T04:49:01.075Z,12.48
2023-04-30T04:51:27.943Z,10.18
2023-04-30T04:53:55.102Z,11.02
2023-04-30T04:56:22.013Z,10.43
2023-04-30T04:58:48.854Z,13.43
2023-04-30T05:01:16.035Z,10.02
2023-04-30T05:03:46.017Z,9.45
2023-04-30T05:06:12.998Z,18.15
2023-04-30T05:08:39.965Z,7.40
2023-04-30T05:11:06.769Z,11.80
2023-04-30T05:13:33.612Z,15.15
2023-04-30T05:16:00.531Z,13.88
2023-04-30T05:18:27.459Z,14.18
2023-04-30T05:20:54.431Z,16.50
2023-04-30T05:23:21.545Z,10.88
2023-04-30T05:25:52.372Z,11.65
2023-04-30T05:28:19.313Z,11.25
2023-04-30T05:30:46.307Z,11.35
2023-04-30T05:33:13.205Z,13.48
2023-04-30T05:35:40.062Z,14.35
2023-04-30T05:38:06.818Z,9.77
2023-04-30T05:40:33.855Z,13.57
2023-04-30T05:43:00.677Z,9.55
2023-04-30T05:45:27.689Z,12.13
2023-04-30T05:47:54.547Z,7.97
2023-04-30T05:50:21.317Z,12.75
2023-04-30T05:52:48.197Z,14.30
2023-04-30T05:55:15.319Z,13.55
2023-04-30T05:57:42.266Z,14.05
2023-04-30T06:00:09.744Z,14.50
2023-04-30T06:02:39.707Z,15.05
2023-04-30T06:05:08.856Z,10.68
2023-04-30T06:07:35.905Z,11.80
2023-04-30T06:10:03.725Z,13.18
2023-04-30T06:12:31.602Z,10.82
2023-04-30T06:14:58.645Z,12.88
2023-04-30T06:17:25.476Z,10.40
2023-04-30T06:19:52.951Z,24.15
2023-04-30T06:22:20.337Z,12.90
2023-04-30T06:24:47.231Z,12.68
2023-04-30T06:27:14.057Z,9.52
2023-04-30T06:29:41.017Z,11.35
2023-04-30T06:32:08.598Z,15.55
2023-04-30T06:34:36.966Z,13.07
2023-04-30T06:37:03.809Z,13.73
2023-04-30T06:39:30.724Z,12.90
2023-04-30T06:41:57.632Z,9.95
2023-04-30T06:44:24.584Z,14.15
2023-04-30T06:46:52.473Z,12.57
2023-04-30T06:49:19.246Z,17.83
2023-04-30T06:51:46.022Z,9.90
2023-04-30T06:54:14.269Z,11.63
2023-04-30T06:56:41.298Z,13.00
2023-04-30T06:59:08.687Z,15.02
2023-04-30T07:01:35.897Z,12.10
2023-04-30T07:04:03.236Z,12.10
2023-04-30T07:06:30.557Z,10.88
2023-04-30T07:08:57.677Z,12.10
2023-04-30T07:11:24.476Z,11.07
2023-04-30T07:13:51.390Z,17.98
2023-04-30T07:16:18.300Z,10.07
2023-04-30T07:18:50.565Z,11.13
2023-04-30T07:21:17.406Z,10.52
2023-04-30T07:23:45.479Z,10.50
2023-04-30T07:26:12.354Z,13.77
2023-04-30T07:28:39.210Z,13.55
2023-04-30T07:31:06.865Z,10.20
2023-04-30T07:33:33.724Z,15.98
2023-04-30T07:36:00.762Z,11.35
2023-04-30T07:38:27.735Z,10.55
2023-04-30T07:40:54.570Z,12.65
2023-04-30T07:43:21.381Z,8.80
2023-04-30T07:45:49.582Z,8.77
2023-04-30T07:48:17.149Z,14.00
2023-04-30T07:50:43.892Z,10.32
2023-04-30T07:53:10.887Z,12.63
2023-04-30T07:55:37.668Z,10.65
2023-04-30T07:58:04.550Z,12.88
2023-04-30T08:00:31.502Z,17.05
2023-04-30T08:03:00.415Z,10.00
2023-04-30T08:05:27.609Z,12.18
2023-04-30T08:07:54.422Z,12.77
2023-04-30T08:10:21.386Z,10.25
2023-04-30T08:12:48.240Z,10.38
2023-04-30T08:15:15.502Z,8.45
2023-04-30T08:17:42.391Z,13.45
2023-04-30T08:20:09.904Z,10.18
2023-04-30T08:22:36.690Z,16.50
2023-04-30T08:25:03.791Z,11.35
2023-04-30T08:27:32.400Z,6.97
2023-04-30T08:29:59.278Z,9.45
2023-04-30T08:32:26.255Z,9.95
2023-04-30T08:34:54.730Z,13.88
2023-04-30T08:37:21.912Z,16.50
2023-04-30T08:39:48.690Z,9.48
2023-04-30T08:42:17.423Z,15.02
2023-04-30T08:44:46.509Z,10.10
2023-04-30T08:47:14.508Z,8.13
2023-04-30T08:49:41.916Z,9.32
2023-04-30T08:52:09.499Z,10.57
2023-04-30T08:54:37.029Z,7.97
2023-04-30T08:57:04.874Z,9.43
2023-04-30T08:59:31.789Z,11.70
2023-04-30T09:02:01.083Z,10.65
2023-04-30T09:04:28.857Z,7.80
2023-04-30T09:06:58.980Z,7.40
2023-04-30T09:09:30.686Z,8.27
2023-04-30T09:12:20.399Z,10.98
2023-04-30T09:15:02.122Z,5.35
2023-04-30T09:17:29.887Z,6.97
2023-04-30T09:20:09.777Z,6.53
2023-04-30T09:22:38.538Z,6.40
2023-04-30T09:25:06.293Z,5.90
2023-04-30T09:27:33.207Z,10.82
2023-04-30T09:30:00.746Z,4.53
2023-04-30T09:32:27.686Z,4.75
2023-04-30T09:34:55.730Z,6.07
2023-04-30T09:37:22.589Z,6.60
2023-04-30T09:39:51.426Z,6.35
2023-04-30T09:42:19.534Z,8.27
2023-04-30T09:44:47.241Z,5.88
2023-04-30T09:47:19.148Z,8.30
2023-04-30T09:49:54.111Z,6.00
2023-04-30T09:52:21.625Z,3.33
2023-04-30T09:54:49.410Z,5.40
2023-04-30T09:57:16.801Z,6.05
2023-04-30T09:59:46.038Z,11.10
2023-04-30T10:02:16.099Z,4.95
2023-04-30T10:04:45.178Z,3.45
2023-04-30T10:07:22.211Z,6.50
2023-04-30T10:09:54.571Z,5.45
2023-04-30T10:12:49.855Z,7.03
2023-04-30T10:15:34.321Z,7.13
2023-04-30T10:18:04.740Z,6.57
2023-04-30T10:20:34.963Z,2.53
2023-04-30T10:23:02.154Z,3.95
2023-04-30T10:25:29.334Z,2.50
2023-04-30T10:27:56.726Z,3.95
2023-04-30T10:30:24.151Z,4.05
2023-04-30T10:32:57.810Z,9.23
2023-04-30T10:38:01.447Z,2.55
2023-04-30T10:40:28.338Z,3.00
2023-04-30T10:42:55.823Z,5.15
2023-04-30T10:45:37.296Z,3.17
2023-04-30T10:48:04.935Z,2.53
2023-04-30T10:50:31.790Z,2.20
2023-04-30T10:53:05.392Z,8.70
2023-04-30T10:57:59.413Z,3.08
2023-04-30T11:00:28.925Z,2.25
2023-04-30T11:03:04.587Z,2.42
2023-04-30T11:05:39.048Z,2.40
2023-04-30T11:08:11.161Z,4.40
2023-04-30T11:10:38.056Z,2.70
2023-04-30T11:13:07.593Z,6.75
2023-04-30T11:15:42.659Z,1.20
2023-04-30T11:18:09.903Z,1.48
2023-04-30T11:20:43.952Z,1.95
2023-04-30T11:23:19.701Z,1.35
2023-04-30T11:25:59.148Z,1.23
2023-04-30T11:28:27.095Z,1.42
2023-04-30T11:30:55.901Z,1.33
2023-04-30T11:33:25.484Z,2.60
2023-04-30T11:35:53.333Z,6.95
2023-04-30T11:38:33.814Z,2.45
2023-04-30T11:41:02.202Z,2.00
2023-04-30T11:43:31.284Z,1.52
2023-04-30T11:46:05.176Z,1.85
2023-04-30T11:48:37.247Z,1.73
2023-04-30T11:51:14.820Z,2.28
2023-04-30T11:53:42.088Z,3.00
2023-04-30T11:56:08.968Z,1.27
2023-04-30T11:58:38.603Z,2.30
2023-04-30T12:01:07.989Z,2.95
2023-04-30T12:03:44.446Z,2.47
2023-04-30T12:06:23.424Z,3.17
2023-04-30T12:08:53.826Z,1.83
2023-04-30T12:11:25.914Z,1.88
2023-04-30T12:13:57.511Z,1.00
2023-04-30T12:16:25.648Z,1.58
2023-04-30T12:18:53.130Z,2.58
2023-04-30T12:21:22.931Z,1.52
2023-04-30T12:23:50.253Z,3.15
2023-04-30T12:26:17.771Z,1.67
2023-04-30T12:28:47.782Z,2.42
2023-04-30T12:31:14.690Z,1.77
2023-04-30T12:33:42.630Z,2.42
2023-04-30T12:36:13.494Z,1.10
2023-04-30T12:38:44.025Z,1.08
2023-04-30T12:41:15.353Z,1.08
2023-04-30T12:43:42.252Z,1.55
2023-04-30T12:46:10.151Z,1.20
2023-04-30T12:48:46.253Z,1.83
2023-04-30T12:51:19.504Z,1.23
2023-04-30T12:53:46.918Z,1.60
2023-04-30T12:56:16.389Z,3.60
2023-04-30T12:58:49.523Z,2.97
2023-04-30T13:01:24.391Z,5.18
2023-04-30T13:03:52.831Z,2.22
2023-04-30T13:06:22.539Z,2.10
2023-04-30T13:08:58.111Z,2.28
2023-04-30T13:11:26.910Z,2.03
2023-04-30T13:13:55.681Z,2.15
2023-04-30T13:16:24.699Z,1.20
2023-04-30T13:18:52.212Z,2.63
2023-04-30T13:21:18.992Z,1.58
2023-04-30T13:23:52.667Z,1.70
2023-04-30T13:26:22.154Z,3.55
2023-04-30T13:28:48.959Z,3.38
2023-04-30T13:31:15.853Z,2.15
2023-04-30T13:33:42.711Z,1.42
2023-04-30T13:36:09.655Z,1.40
2023-04-30T13:38:36.643Z,1.58
2023-04-30T13:41:03.569Z,4.28
2023-04-30T13:43:31.294Z,2.38
2023-04-30T13:46:01.465Z,6.97
2023-04-30T13:48:28.269Z,2.63
2023-04-30T13:50:55.081Z,1.25
2023-04-30T13:53:22.466Z,2.80
2023-04-30T13:55:49.357Z,6.03
2023-04-30T13:58:16.120Z,4.18
2023-04-30T14:00:43.433Z,2.10
2023-04-30T14:03:11.154Z,1.30
2023-04-30T14:05:39.268Z,2.03
2023-04-30T14:08:06.325Z,2.22
2023-04-30T14:10:33.330Z,1.70
2023-04-30T14:13:00.284Z,4.88
2023-04-30T14:15:30.414Z,3.80
2023-04-30T14:17:57.261Z,3.17
2023-04-30T14:20:25.093Z,2.83
2023-04-30T14:22:51.854Z,2.25
2023-04-30T14:25:18.737Z,3.25
2023-04-30T14:27:47.210Z,3.72
2023-04-30T14:30:14.276Z,2.80
2023-04-30T14:32:41.223Z,2.85
2023-04-30T14:35:09.637Z,1.70
2023-04-30T14:37:36.507Z,6.75
2023-04-30T14:40:05.168Z,1.65
2023-04-30T14:42:33.255Z,1.05
2023-04-30T14:45:00.070Z,2.17
2023-04-30T14:47:27.740Z,2.45
2023-04-30T14:49:54.873Z,2.67
2023-04-30T14:52:22.322Z,2.40
2023-04-30T14:54:49.340Z,6.13
2023-04-30T14:57:18.470Z,2.97
2023-04-30T14:59:45.481Z,4.68
2023-04-30T15:02:12.393Z,3.42
2023-04-30T15:04:39.255Z,1.20
2023-04-30T15:07:06.082Z,2.92
2023-04-30T15:09:33.011Z,1.77
2023-04-30T15:11:59.863Z,2.20
2023-04-30T15:14:26.890Z,2.85
2023-04-30T15:16:53.730Z,5.97
2023-04-30T15:19:20.603Z,3.17
2023-04-30T15:21:49.081Z,2.38
2023-04-30T15:24:16.423Z,1.48
2023-04-30T15:26:43.353Z,1.40
2023-04-30T15:29:12.036Z,1.15
2023-04-30T15:31:38.989Z,2.55
2023-04-30T15:34:05.928Z,1.52
2023-04-30T15:36:33.213Z,1.98
2023-04-30T15:39:00.066Z,1.67
2023-04-30T15:41:28.182Z,1.60
2023-04-30T15:43:55.139Z,1.02
2023-04-30T15:46:22.290Z,2.20
2023-04-30T15:48:49.122Z,2.97
2023-04-30T15:51:16.190Z,3.00
2023-04-30T15:53:43.093Z,4.28
2023-04-30T15:56:10.830Z,2.22
2023-04-30T15:58:37.755Z,1.92
2023-04-30T16:01:04.666Z,2.53
2023-04-30T16:03:32.242Z,2.05
2023-04-30T16:06:00.906Z,2.03
2023-04-30T16:08:28.433Z,2.05
2023-04-30T16:10:55.529Z,5.85
2023-04-30T16:13:23.412Z,5.03
2023-04-30T16:15:50.249Z,2.03
2023-04-30T16:18:17.117Z,4.70
2023-04-30T16:20:47.121Z,4.70
2023-04-30T16:23:14.231Z,2.67
2023-04-30T16:25:41.081Z,2.03
2023-04-30T16:28:07.916Z,3.45
2023-04-30T16:30:34.886Z,1.40
2023-04-30T16:33:01.763Z,2.75
2023-04-30T16:35:28.630Z,2.42
2023-04-30T16:37:55.874Z,2.45
2023-04-30T16:40:22.750Z,2.30
2023-04-30T16:42:50.150Z,4.75
2023-04-30T16:45:17.235Z,4.20
2023-04-30T16:47:44.959Z,1.92
2023-04-30T16:50:11.839Z,0.98
2023-04-30T16:52:38.594Z,1.27
2023-04-30T16:55:05.859Z,11.82
2023-04-30T16:57:33.117Z,4.22
2023-04-30T17:00:00.003Z,2.88
2023-04-30T17:02:27.098Z,2.95
2023-04-30T17:04:54.134Z,2.08
2023-04-30T17:07:21.303Z,2.55
2023-04-30T17:09:50.195Z,3.95
2023-04-30T17:12:17.134Z,3.50
2023-04-30T17:14:43.975Z,5.22
2023-04-30T17:17:10.868Z,2.00
2023-04-30T17:19:37.722Z,2.22
2023-04-30T17:22:04.623Z,1.55
2023-04-30T17:24:31.489Z,2.80
2023-04-30T17:26:59.390Z,1.95
2023-04-30T17:29:26.414Z,2.80
2023-04-30T17:31:53.316Z,3.78
2023-04-30T17:34:20.697Z,2.47
2023-04-30T17:36:48.830Z,2.92
2023-04-30T17:39:16.480Z,2.90
2023-04-30T17:41:43.279Z,2.10
2023-04-30T17:44:10.060Z,2.05
2023-04-30T17:46:37.271Z,4.45
2023-04-30T17:49:04.659Z,3.35
2023-04-30T17:51:31.659Z,3.95
2023-04-30T17:54:01.720Z,2.42
2023-04-30T17:56:32.983Z,3.58
2023-04-30T17:59:02.594Z,4.18
2023-04-30T18:01:29.489Z,2.38
2023-04-30T18:04:00.262Z,3.78
2023-04-30T18:06:28.014Z,6.70
2023-04-30T18:08:55.531Z,3.33
2023-04-30T18:11:22.407Z,2.97
2023-04-30T18:13:49.376Z,6.75
2023-04-30T18:16:16.175Z,2.60
2023-04-30T18:18:43.112Z,4.28
2023-04-30T18:21:10.041Z,4.28
2023-04-30T18:23:37.030Z,4.97
2023-04-30T18:26:04.129Z,7.32
2023-04-30T18:28:31.009Z,4.38
2023-04-30T18:30:57.938Z,5.05
2023-04-30T18:33:24.788Z,5.63
2023-04-30T18:35:52.707Z,4.40
2023-04-30T18:38:20.544Z,7.57
2023-04-30T18:40:47.429Z,3.28
2023-04-30T18:43:16.118Z,4.22
2023-04-30T18:45:43.002Z,6.35
2023-04-30T18:48:09.840Z,2.67
2023-04-30T18:50:37.031Z,3.20
2023-04-30T18:53:04.294Z,2.13
2023-04-30T18:55:31.171Z,4.75
2023-04-30T18:57:58.030Z,2.33
2023-04-30T19:00:25.364Z,3.20
2023-04-30T19:02:52.501Z,4.22
2023-04-30T19:05:19.664Z,2.72
2023-04-30T19:07:46.749Z,4.63
2023-04-30T19:10:14.187Z,4.05
2023-04-30T19:12:44.029Z,4.28
2023-04-30T19:15:15.226Z,3.60
2023-04-30T19:17:42.621Z,2.60
2023-04-30T19:20:10.367Z,3.25
2023-04-30T19:22:37.689Z,3.03
2023-04-30T19:25:05.207Z,3.53
2023-04-30T19:27:31.977Z,4.63
2023-04-30T19:29:59.159Z,3.22
2023-04-30T19:32:26.443Z,5.82
2023-04-30T19:34:54.003Z,8.20
2023-04-30T19:37:20.972Z,3.03
2023-04-30T19:39:47.868Z,2.47
2023-04-30T19:42:16.245Z,4.95
2023-04-30T19:44:43.117Z,6.70
2023-04-30T19:47:10.002Z,3.35
2023-04-30T19:49:36.787Z,3.47
2023-04-30T19:52:04.519Z,2.38
2023-04-30T19:54:31.441Z,4.03
2023-04-30T19:56:58.320Z,3.10
2023-04-30T19:59:26.813Z,3.08
2023-04-30T20:01:53.711Z,3.47
2023-04-30T20:04:20.757Z,2.95
2023-04-30T20:06:48.145Z,4.78
2023-04-30T20:09:15.317Z,4.03
2023-04-30T20:11:42.275Z,4.65
2023-04-30T20:14:09.301Z,2.40
2023-04-30T20:16:36.141Z,2.95
2023-04-30T20:19:03.073Z,4.18
2023-04-30T20:21:30.280Z,4.38
2023-04-30T20:23:57.381Z,3.70
2023-04-30T20:26:25.777Z,4.00
2023-04-30T20:28:53.500Z,3.70
2023-04-30T20:31:21.183Z,3.55
2023-04-30T20:33:48.333Z,9.07
2023-04-30T20:36:15.703Z,3.15
2023-04-30T20:38:42.626Z,3.30
2023-04-30T20:41:10.079Z,2.33
2023-04-30T20:43:37.162Z,2.67
2023-04-30T20:46:04.108Z,2.83
2023-04-30T20:48:31.052Z,4.35
2023-04-30T20:50:57.836Z,3.45
2023-04-30T20:53:24.705Z,4.28
2023-04-30T20:55:51.549Z,3.17
2023-04-30T20:58:18.384Z,2.40
2023-04-30T21:00:45.781Z,1.98
2023-04-30T21:03:12.754Z,3.67
2023-04-30T21:05:40.722Z,3.03
2023-04-30T21:08:07.512Z,2.55
2023-04-30T21:10:36.424Z,7.28
2023-04-30T21:13:05.143Z,2.13
2023-04-30T21:15:35.919Z,2.90
2023-04-30T21:18:02.928Z,3.80
2023-04-30T21:20:31.221Z,5.53
2023-04-30T21:22:58.137Z,2.10
2023-04-30T21:25:25.001Z,3.78
2023-04-30T21:27:52.176Z,2.42
2023-04-30T21:30:19.101Z,6.32
2023-04-30T21:32:48.823Z,2.97
2023-04-30T21:35:15.929Z,2.53
2023-04-30T21:37:42.818Z,1.42
2023-04-30T21:40:10.140Z,1.90
2023-04-30T21:42:37.025Z,5.38
2023-04-30T21:45:04.764Z,1.67
2023-04-30T21:47:31.921Z,7.00
2023-04-30T21:49:59.092Z,9.20
2023-04-30T21:52:26.127Z,2.17
2023-04-30T21:54:53.066Z,2.47
2023-04-30T21:57:19.787Z,3.28
2023-04-30T21:59:46.709Z,3.13
2023-04-30T22:02:24.031Z,1.65
2023-04-30T22:04:51.324Z,2.58
2023-04-30T22:07:18.261Z,2.50
2023-04-30T22:09:45.505Z,2.75
2023-04-30T22:12:12.658Z,1.92
2023-04-30T22:14:39.435Z,2.00
2023-04-30T22:17:06.939Z,3.90
2023-04-30T22:19:34.213Z,4.88
2023-04-30T22:22:01.720Z,4.05
2023-04-30T22:24:29.781Z,2.38
2023-04-30T22:26:57.222Z,10.13
2023-04-30T22:29:24.481Z,4.13
2023-04-30T22:31:51.945Z,4.80
2023-04-30T22:34:23.004Z,3.30
2023-04-30T22:36:53.277Z,2.17
2023-04-30T22:39:20.767Z,2.03
2023-04-30T22:41:48.133Z,3.78
2023-04-30T22:44:16.479Z,4.40
2023-04-30T22:46:44.089Z,2.72
2023-04-30T22:49:19.926Z,3.42
2023-04-30T22:51:55.305Z,1.60
2023-04-30T22:54:24.016Z,2.60
2023-04-30T22:56:51.322Z,3.45
2023-04-30T22:59:18.790Z,1.85
2023-04-30T23:01:46.053Z,1.98
2023-04-30T23:04:13.749Z,4.38
2023-04-30T23:06:42.764Z,1.92
2023-04-30T23:09:12.332Z,3.05
2023-04-30T23:11:39.764Z,2.05
2023-04-30T23:14:07.406Z,4.72
2023-04-30T23:16:34.922Z,2.78
2023-04-30T23:19:02.377Z,2.47
2023-04-30T23:21:30.504Z,2.90
2023-04-30T23:23:58.007Z,1.77
2023-04-30T23:26:25.271Z,12.75
2023-04-30T23:28:55.124Z,4.28
2023-04-30T23:31:22.689Z,1.75
2023-04-30T23:33:49.992Z,4.88
2023-04-30T23:36:17.443Z,6.72
2023-04-30T23:38:46.797Z,3.83
2023-04-30T23:41:14.498Z,3.42
2023-04-30T23:43:42.812Z,2.17
2023-04-30T23:46:10.311Z,2.78
2023-04-30T23:48:37.686Z,3.53
2023-04-30T23:51:05.715Z,2.80
2023-04-30T23:53:33.289Z,4.85
2023-04-30T23:56:00.608Z,1.50
2023-04-30T23:58:30.228Z,5.10
